createdAt,value
2018-11-20T00:00:07.369Z,-0.40
2018-11-20T00:01:07.810Z,-0.40
2018-11-20T00:02:04.719Z,-0.40
2018-11-20T00:03:04.752Z,-0.40
2018-11-20T00:04:09.992Z,-0.30
2018-11-20T00:05:04.890Z,-0.30
2018-11-20T00:06:05.401Z,-0.40
2018-11-20T00:07:05.527Z,-0.30
2018-11-20T00:08:08.187Z,-0.30
2018-11-20T00:09:07.684Z,-0.30
2018-11-20T00:10:05.565Z,-0.40
2018-11-20T00:11:05.723Z,-0.30
2018-11-20T00:12:04.779Z,-0.30
2018-11-20T00:13:04.840Z,-0.40
2018-11-20T00:14:05.013Z,-0.40
2018-11-20T00:15:07.696Z,-0.40
2018-11-20T00:16:05.744Z,-0.30
2018-11-20T00:17:04.865Z,-0.30
2018-11-20T00:18:04.987Z,-0.30
2018-11-20T00:19:05.100Z,-0.30
2018-11-20T00:20:07.868Z,-0.40
2018-11-20T00:21:04.810Z,-0.30
2018-11-20T00:22:09.935Z,-0.40
2018-11-20T00:23:04.880Z,-0.40
2018-11-20T00:24:05.114Z,-0.30
2018-11-20T00:25:05.243Z,-0.30
2018-11-20T00:26:05.383Z,-0.40
2018-11-20T00:27:07.934Z,-0.30
2018-11-20T00:28:04.863Z,-0.40
2018-11-20T00:29:05.206Z,-0.30
2018-11-20T00:30:07.747Z,-0.30
2018-11-20T00:31:04.636Z,-0.30
2018-11-20T00:32:04.683Z,-0.30
2018-11-20T00:33:07.317Z,-0.30
2018-11-20T00:34:05.240Z,-0.30
2018-11-20T00:35:05.249Z,-0.30
2018-11-20T00:36:07.800Z,-0.30
2018-11-20T00:37:04.671Z,-0.30
2018-11-20T00:38:04.724Z,-0.30
2018-11-20T00:39:04.734Z,-0.30
2018-11-20T00:40:07.420Z,-0.30
2018-11-20T00:41:05.370Z,-0.30
2018-11-20T00:42:08.100Z,-0.30
2018-11-20T00:43:04.984Z,-0.30
2018-11-20T00:44:05.143Z,-0.30
2018-11-20T00:45:05.196Z,-0.30
2018-11-20T00:46:07.857Z,-0.30
2018-11-20T00:47:04.833Z,-0.30
2018-11-20T00:48:12.671Z,-0.20
2018-11-20T00:49:05.628Z,-0.30
2018-11-20T00:50:04.639Z,-0.20
2018-11-20T00:51:07.689Z,-0.30
2018-11-20T00:52:04.745Z,-0.20
2018-11-20T00:53:07.386Z,-0.20
2018-11-20T00:54:08.097Z,-0.20
2018-11-20T00:55:05.071Z,-0.20
2018-11-20T00:56:05.240Z,-0.20
2018-11-20T00:57:05.363Z,-0.20
2018-11-20T00:58:05.462Z,-0.20
2018-11-20T00:59:08.019Z,-0.20
2018-11-20T01:00:04.930Z,-0.20
2018-11-20T01:01:04.974Z,-0.20
2018-11-20T01:02:05.017Z,-0.20
2018-11-20T01:03:05.070Z,-0.20
2018-11-20T01:04:05.532Z,-0.20
2018-11-20T01:05:08.321Z,-0.10
2018-11-20T01:06:05.298Z,-0.20
2018-11-20T01:07:05.358Z,-0.10
2018-11-20T01:08:05.447Z,-0.10
2018-11-20T01:09:08.166Z,-0.10
2018-11-20T01:10:05.056Z,-0.10
2018-11-20T01:11:07.592Z,-0.10
2018-11-20T01:12:05.484Z,-0.10
2018-11-20T01:13:05.586Z,-0.10
2018-11-20T01:14:07.127Z,-0.10
2018-11-20T01:15:05.024Z,-0.10
2018-11-20T01:16:05.088Z,-0.10
2018-11-20T01:17:07.745Z,-0.10
2018-11-20T01:18:07.281Z,-0.10
2018-11-20T01:19:07.867Z,-0.10
2018-11-20T01:20:09.890Z,-0.10
2018-11-20T01:21:04.762Z,-0.10
2018-11-20T01:22:07.709Z,-0.10
2018-11-20T01:23:05.597Z,-0.10
2018-11-20T01:24:04.641Z,-0.10
2018-11-20T01:25:04.598Z,-0.10
2018-11-20T01:26:04.779Z,-0.10
2018-11-20T01:27:07.508Z,-0.10
2018-11-20T01:28:05.490Z,-0.10
2018-11-20T01:29:04.988Z,-0.10
2018-11-20T01:30:05.100Z,-0.10
2018-11-20T01:31:07.729Z,0.00
2018-11-20T01:32:04.693Z,0.00
2018-11-20T01:33:04.841Z,-0.10
2018-11-20T01:34:04.827Z,0.00
2018-11-20T01:35:04.856Z,0.00
2018-11-20T01:36:04.912Z,0.00
2018-11-20T01:37:04.947Z,0.00
2018-11-20T01:38:05.144Z,0.00
2018-11-20T01:39:05.358Z,0.00
2018-11-20T01:40:07.999Z,0.00
2018-11-20T01:41:07.473Z,0.00
2018-11-20T01:42:10.497Z,0.00
2018-11-20T01:43:08.000Z,0.00
2018-11-20T01:44:04.923Z,0.00
2018-11-20T01:45:04.924Z,0.00
2018-11-20T01:46:07.540Z,0.00
2018-11-20T01:47:05.412Z,0.00
2018-11-20T01:48:05.626Z,0.00
2018-11-20T01:49:07.247Z,0.00
2018-11-20T01:50:07.665Z,0.00
2018-11-20T01:51:04.637Z,0.00
2018-11-20T01:52:04.652Z,0.00
2018-11-20T01:53:04.660Z,0.00
2018-11-20T01:54:07.168Z,0.00
2018-11-20T01:55:07.810Z,0.00
2018-11-20T01:56:04.827Z,0.00
2018-11-20T01:57:04.856Z,0.00
2018-11-20T01:58:05.060Z,0.00
2018-11-20T01:59:05.113Z,0.00
2018-11-20T02:00:05.151Z,0.00
2018-11-20T02:01:05.291Z,0.00
2018-11-20T02:02:05.521Z,0.00
2018-11-20T02:03:04.716Z,0.00
2018-11-20T02:04:04.973Z,0.00
2018-11-20T02:05:05.264Z,0.00
2018-11-20T02:06:05.515Z,0.00
2018-11-20T02:07:07.175Z,0.00
2018-11-20T02:08:07.755Z,0.00
2018-11-20T02:09:07.211Z,0.00
2018-11-20T02:10:07.608Z,0.00
2018-11-20T02:11:05.501Z,0.00
2018-11-20T02:12:08.181Z,0.00
2018-11-20T02:13:05.082Z,0.00
2018-11-20T02:14:05.160Z,0.00
2018-11-20T02:15:07.821Z,0.00
2018-11-20T02:16:04.729Z,0.00
2018-11-20T02:17:04.762Z,0.00
2018-11-20T02:18:04.886Z,0.00
2018-11-20T02:19:07.664Z,0.00
2018-11-20T02:20:07.249Z,0.00
2018-11-20T02:21:05.201Z,0.00
2018-11-20T02:22:07.764Z,0.00
2018-11-20T02:23:04.716Z,0.00
2018-11-20T02:24:04.892Z,0.00
2018-11-20T02:25:05.113Z,0.10
2018-11-20T02:26:07.749Z,0.10
2018-11-20T02:27:04.656Z,0.10
2018-11-20T02:28:04.677Z,0.10
2018-11-20T02:29:05.352Z,0.10
2018-11-20T02:30:07.896Z,0.00
2018-11-20T02:31:07.310Z,0.10
2018-11-20T02:32:05.175Z,0.10
2018-11-20T02:33:05.552Z,0.10
2018-11-20T02:34:04.686Z,0.10
2018-11-20T02:35:07.440Z,0.10
2018-11-20T02:36:05.475Z,0.10
2018-11-20T02:37:05.561Z,0.10
2018-11-20T02:38:04.684Z,0.10
2018-11-20T02:39:07.252Z,0.10
2018-11-20T02:40:05.276Z,0.10
2018-11-20T02:41:05.461Z,0.10
2018-11-20T02:42:05.492Z,0.10
2018-11-20T02:43:05.473Z,0.10
2018-11-20T02:44:05.472Z,0.10
2018-11-20T02:45:05.522Z,0.10
2018-11-20T02:46:05.626Z,0.10
2018-11-20T02:47:04.637Z,0.10
2018-11-20T02:48:04.871Z,0.10
2018-11-20T02:49:04.971Z,0.10
2018-11-20T02:50:07.628Z,0.10
2018-11-20T02:51:10.631Z,0.10
2018-11-20T02:52:05.624Z,0.10
2018-11-20T02:53:04.677Z,0.10
2018-11-20T02:54:07.677Z,0.10
2018-11-20T02:55:04.772Z,0.10
2018-11-20T02:56:04.824Z,0.10
2018-11-20T02:57:04.850Z,0.10
2018-11-20T02:58:07.483Z,0.10
2018-11-20T02:59:08.128Z,0.20
2018-11-20T03:00:07.653Z,0.10
2018-11-20T03:01:05.596Z,0.10
2018-11-20T03:02:04.638Z,0.10
2018-11-20T03:03:04.682Z,0.10
2018-11-20T03:04:04.768Z,0.10
2018-11-20T03:05:04.947Z,0.10
2018-11-20T03:06:07.526Z,0.10
2018-11-20T03:07:05.491Z,0.10
2018-11-20T03:08:05.705Z,0.10
2018-11-20T03:09:04.815Z,0.10
2018-11-20T03:10:04.880Z,0.10
2018-11-20T03:11:04.870Z,0.10
2018-11-20T03:12:04.975Z,0.10
2018-11-20T03:13:05.101Z,0.20
2018-11-20T03:14:07.700Z,0.10
2018-11-20T03:15:05.589Z,0.10
2018-11-20T03:16:04.646Z,0.20
2018-11-20T03:17:07.286Z,0.20
2018-11-20T03:18:05.203Z,0.20
2018-11-20T03:19:05.329Z,0.10
2018-11-20T03:20:05.425Z,0.10
2018-11-20T03:21:05.440Z,0.20
2018-11-20T03:22:05.511Z,0.10
2018-11-20T03:23:05.596Z,0.20
2018-11-20T03:24:07.185Z,0.20
2018-11-20T03:25:05.207Z,0.10
2018-11-20T03:26:08.429Z,0.20
2018-11-20T03:27:05.472Z,0.20
2018-11-20T03:28:04.768Z,0.20
2018-11-20T03:29:05.412Z,0.10
2018-11-20T03:30:05.537Z,0.20
2018-11-20T03:31:05.580Z,0.20
2018-11-20T03:32:04.636Z,0.20
2018-11-20T03:33:04.683Z,0.20
2018-11-20T03:34:07.434Z,0.20
2018-11-20T03:35:07.912Z,0.20
2018-11-20T03:36:04.968Z,0.20
2018-11-20T03:37:05.135Z,0.20
2018-11-20T03:38:07.863Z,0.20
2018-11-20T03:39:07.279Z,0.20
2018-11-20T03:40:05.291Z,0.20
2018-11-20T03:41:06.066Z,0.20
2018-11-20T03:42:05.037Z,0.20
2018-11-20T03:43:05.068Z,0.20
2018-11-20T03:44:05.150Z,0.20
2018-11-20T03:45:05.296Z,0.20
2018-11-20T03:46:05.451Z,0.20
2018-11-20T03:47:08.008Z,0.20
2018-11-20T03:48:04.938Z,0.20
2018-11-20T03:49:05.236Z,0.20
2018-11-20T03:50:05.287Z,0.20
2018-11-20T03:51:05.277Z,0.20
2018-11-20T03:52:07.916Z,0.20
2018-11-20T03:53:04.843Z,0.20
2018-11-20T03:54:04.885Z,0.30
2018-11-20T03:55:04.987Z,0.30
2018-11-20T03:56:05.167Z,0.30
2018-11-20T03:57:07.773Z,0.20
2018-11-20T03:58:04.648Z,0.30
2018-11-20T03:59:04.739Z,0.20
2018-11-20T04:00:04.813Z,0.30
2018-11-20T04:01:07.411Z,0.30
2018-11-20T04:02:05.357Z,0.20
2018-11-20T04:03:05.354Z,0.30
2018-11-20T04:04:05.409Z,0.30
2018-11-20T04:05:05.447Z,0.30
2018-11-20T04:06:08.222Z,0.20
2018-11-20T04:07:05.288Z,0.20
2018-11-20T04:08:07.992Z,0.20
2018-11-20T04:09:07.589Z,0.30
2018-11-20T04:10:08.185Z,0.20
2018-11-20T04:11:07.757Z,0.20
2018-11-20T04:12:10.724Z,0.20
2018-11-20T04:13:04.831Z,0.30
2018-11-20T04:14:04.908Z,0.30
2018-11-20T04:15:04.902Z,0.20
2018-11-20T04:16:04.933Z,0.20
2018-11-20T04:17:05.174Z,0.20
2018-11-20T04:18:07.784Z,0.30
2018-11-20T04:19:04.622Z,0.20
2018-11-20T04:20:04.670Z,0.20
2018-11-20T04:21:04.663Z,0.20
2018-11-20T04:22:04.723Z,0.30
2018-11-20T04:23:04.884Z,0.30
2018-11-20T04:24:04.998Z,0.30
2018-11-20T04:25:05.038Z,0.30
2018-11-20T04:26:07.572Z,0.30
2018-11-20T04:27:08.109Z,0.30
2018-11-20T04:28:07.712Z,0.30
2018-11-20T04:29:04.783Z,0.20
2018-11-20T04:30:07.348Z,0.30
2018-11-20T04:31:05.190Z,0.30
2018-11-20T04:32:05.234Z,0.30
2018-11-20T04:33:05.369Z,0.30
2018-11-20T04:34:05.439Z,0.30
2018-11-20T04:35:05.467Z,0.30
2018-11-20T04:36:08.156Z,0.30
2018-11-20T04:37:05.039Z,0.30
2018-11-20T04:38:05.015Z,0.30
2018-11-20T04:39:07.621Z,0.30
2018-11-20T04:40:05.470Z,0.30
2018-11-20T04:41:05.556Z,0.30
2018-11-20T04:42:04.894Z,0.30
2018-11-20T04:43:07.490Z,0.30
2018-11-20T04:44:08.027Z,0.30
2018-11-20T04:45:05.006Z,0.30
2018-11-20T04:46:07.693Z,0.40
2018-11-20T04:47:04.626Z,0.30
2018-11-20T04:48:04.658Z,0.30
2018-11-20T04:49:07.306Z,0.30
2018-11-20T04:50:05.277Z,0.30
2018-11-20T04:51:08.065Z,0.30
2018-11-20T04:52:05.001Z,0.30
2018-11-20T04:53:05.052Z,0.30
2018-11-20T04:54:05.091Z,0.40
2018-11-20T04:55:07.663Z,0.30
2018-11-20T04:56:05.606Z,0.30
2018-11-20T04:57:07.343Z,0.30
2018-11-20T04:58:05.280Z,0.30
2018-11-20T04:59:05.378Z,0.30
2018-11-20T05:00:12.968Z,0.30
2018-11-20T05:01:04.858Z,0.30
2018-11-20T05:02:07.419Z,0.30
2018-11-20T05:03:05.307Z,0.30
2018-11-20T05:04:05.332Z,0.30
2018-11-20T05:05:05.303Z,0.30
2018-11-20T05:06:05.602Z,0.30
2018-11-20T05:07:05.595Z,0.30
2018-11-20T05:08:04.638Z,0.30
2018-11-20T05:09:04.615Z,0.30
2018-11-20T05:10:07.303Z,0.30
2018-11-20T05:11:05.246Z,0.30
2018-11-20T05:12:07.804Z,0.30
2018-11-20T05:13:07.334Z,0.30
2018-11-20T05:14:05.777Z,0.30
2018-11-20T05:15:04.824Z,0.30
2018-11-20T05:16:04.918Z,0.30
2018-11-20T05:17:07.477Z,0.30
2018-11-20T05:18:05.442Z,0.30
2018-11-20T05:19:05.505Z,0.30
2018-11-20T05:20:08.140Z,0.30
2018-11-20T05:21:05.019Z,0.30
2018-11-20T05:22:05.047Z,0.30
2018-11-20T05:23:05.186Z,0.30
2018-11-20T05:24:07.749Z,0.30
2018-11-20T05:25:05.008Z,0.30
2018-11-20T05:26:07.695Z,0.30
2018-11-20T05:27:07.220Z,0.30
2018-11-20T05:28:05.133Z,0.30
2018-11-20T05:29:08.480Z,0.30
2018-11-20T05:30:07.905Z,0.30
2018-11-20T05:31:05.097Z,0.30
2018-11-20T05:32:05.387Z,0.30
2018-11-20T05:33:05.506Z,0.30
2018-11-20T05:34:08.038Z,0.30
2018-11-20T05:35:04.920Z,0.30
2018-11-20T05:36:07.600Z,0.30
2018-11-20T05:37:08.093Z,0.30
2018-11-20T05:38:04.988Z,0.30
2018-11-20T05:39:05.007Z,0.30
2018-11-20T05:40:05.333Z,0.30
2018-11-20T05:41:05.490Z,0.30
2018-11-20T05:42:05.506Z,0.30
2018-11-20T05:43:05.491Z,0.30
2018-11-20T05:44:05.558Z,0.30
2018-11-20T05:45:08.095Z,0.30
2018-11-20T05:46:05.168Z,0.30
2018-11-20T05:47:07.837Z,0.30
2018-11-20T05:48:04.822Z,0.30
2018-11-20T05:49:05.028Z,0.30
2018-11-20T05:50:05.191Z,0.30
2018-11-20T05:51:10.353Z,0.30
2018-11-20T05:52:05.374Z,0.30
2018-11-20T05:53:05.499Z,0.30
2018-11-20T05:54:08.098Z,0.30
2018-11-20T05:55:05.060Z,0.30
2018-11-20T05:56:05.099Z,0.30
2018-11-20T05:57:07.638Z,0.30
2018-11-20T05:58:05.763Z,0.30
2018-11-20T05:59:05.109Z,0.40
2018-11-20T06:00:05.186Z,0.40
2018-11-20T06:01:05.578Z,0.30
2018-11-20T06:02:05.702Z,0.30
2018-11-20T06:03:04.713Z,0.40
2018-11-20T06:04:07.430Z,0.40
2018-11-20T06:05:05.422Z,0.30
2018-11-20T06:06:05.491Z,0.40
2018-11-20T06:07:04.711Z,0.40
2018-11-20T06:08:07.426Z,0.40
2018-11-20T06:09:05.382Z,0.40
2018-11-20T06:10:07.990Z,0.40
2018-11-20T06:11:07.425Z,0.40
2018-11-20T06:12:05.326Z,0.40
2018-11-20T06:13:05.264Z,0.40
2018-11-20T06:14:10.312Z,0.40
2018-11-20T06:15:05.294Z,0.30
2018-11-20T06:16:10.365Z,0.40
2018-11-20T06:17:07.847Z,0.40
2018-11-20T06:18:07.171Z,0.40
2018-11-20T06:19:05.141Z,0.40
2018-11-20T06:20:07.974Z,0.40
2018-11-20T06:21:04.889Z,0.40
2018-11-20T06:22:04.957Z,0.40
2018-11-20T06:23:05.073Z,0.40
2018-11-20T06:24:05.173Z,0.40
2018-11-20T06:25:05.331Z,0.40
2018-11-20T06:26:05.531Z,0.40
2018-11-20T06:27:05.626Z,0.40
2018-11-20T06:28:04.718Z,0.40
2018-11-20T06:29:04.776Z,0.40
2018-11-20T06:30:05.079Z,0.40
2018-11-20T06:31:10.204Z,0.50
2018-11-20T06:32:10.128Z,0.50
2018-11-20T06:33:05.130Z,0.40
2018-11-20T06:34:07.698Z,0.50
2018-11-20T06:35:05.664Z,0.50
2018-11-20T06:36:04.977Z,0.50
2018-11-20T06:37:05.030Z,0.40
2018-11-20T06:38:05.191Z,0.50
2018-11-20T06:39:05.710Z,0.50
2018-11-20T06:40:05.173Z,0.50
2018-11-20T06:41:05.266Z,0.50
2018-11-20T06:42:05.423Z,0.50
2018-11-20T06:43:05.473Z,0.50
2018-11-20T06:44:08.003Z,0.50
2018-11-20T06:45:04.840Z,0.50
2018-11-20T06:46:05.027Z,0.50
2018-11-20T06:47:05.214Z,0.50
2018-11-20T06:48:07.907Z,0.50
2018-11-20T06:49:07.434Z,0.50
2018-11-20T06:50:05.473Z,0.50
2018-11-20T06:51:05.667Z,0.50
2018-11-20T06:52:04.728Z,0.50
2018-11-20T06:53:10.078Z,0.50
2018-11-20T06:54:05.347Z,0.50
2018-11-20T06:55:05.499Z,0.50
2018-11-20T06:56:08.063Z,0.50
2018-11-20T06:57:05.032Z,0.50
2018-11-20T06:58:05.156Z,0.50
2018-11-20T06:59:05.243Z,0.50
2018-11-20T07:00:05.323Z,0.50
2018-11-20T07:01:05.363Z,0.50
2018-11-20T07:02:04.946Z,0.50
2018-11-20T07:03:05.460Z,0.50
2018-11-20T07:04:05.551Z,0.50
2018-11-20T07:05:08.107Z,0.50
2018-11-20T07:06:07.555Z,0.60
2018-11-20T07:07:08.084Z,0.50
2018-11-20T07:08:05.368Z,0.50
2018-11-20T07:09:04.989Z,0.60
2018-11-20T07:10:05.143Z,0.50
2018-11-20T07:11:05.302Z,0.50
2018-11-20T07:12:07.947Z,0.60
2018-11-20T07:13:04.950Z,0.50
2018-11-20T07:14:05.084Z,0.50
2018-11-20T07:15:05.265Z,0.50
2018-11-20T07:16:05.893Z,0.60
2018-11-20T07:17:07.569Z,0.60
2018-11-20T07:18:05.478Z,0.50
2018-11-20T07:19:05.519Z,0.60
2018-11-20T07:20:05.690Z,0.60
2018-11-20T07:21:09.929Z,0.60
2018-11-20T07:22:04.937Z,0.60
2018-11-20T07:23:05.170Z,0.60
2018-11-20T07:24:05.282Z,0.60
2018-11-20T07:25:05.362Z,0.60
2018-11-20T07:26:05.415Z,0.60
2018-11-20T07:27:08.047Z,0.60
2018-11-20T07:28:05.067Z,0.60
2018-11-20T07:29:05.273Z,0.60
2018-11-20T07:30:05.344Z,0.60
2018-11-20T07:31:04.693Z,0.60
2018-11-20T07:32:07.380Z,0.60
2018-11-20T07:33:05.396Z,0.60
2018-11-20T07:34:05.507Z,0.60
2018-11-20T07:35:08.114Z,0.60
2018-11-20T07:36:05.032Z,0.60
2018-11-20T07:37:05.475Z,0.60
2018-11-20T07:38:05.300Z,0.60
2018-11-20T07:39:05.473Z,0.60
2018-11-20T07:40:08.096Z,0.60
2018-11-20T07:41:05.004Z,0.60
2018-11-20T07:42:04.985Z,0.60
2018-11-20T07:43:07.605Z,0.60
2018-11-20T07:44:04.797Z,0.60
2018-11-20T07:45:05.006Z,0.70
2018-11-20T07:46:05.053Z,0.60
2018-11-20T07:47:07.620Z,0.60
2018-11-20T07:48:05.697Z,0.70
2018-11-20T07:49:05.054Z,0.70
2018-11-20T07:50:10.173Z,0.70
2018-11-20T07:51:05.114Z,0.70
2018-11-20T07:52:05.217Z,0.70
2018-11-20T07:53:07.872Z,0.70
2018-11-20T07:54:04.858Z,0.70
2018-11-20T07:55:07.546Z,0.70
2018-11-20T07:56:08.285Z,0.70
2018-11-20T07:57:04.676Z,0.60
2018-11-20T07:58:07.296Z,0.70
2018-11-20T07:59:05.224Z,0.70
2018-11-20T08:00:05.417Z,0.70
2018-11-20T08:01:05.701Z,0.70
2018-11-20T08:02:04.978Z,0.70
2018-11-20T08:03:11.072Z,0.70
2018-11-20T08:04:05.133Z,0.70
2018-11-20T08:05:05.194Z,0.70
2018-11-20T08:06:05.380Z,0.70
2018-11-20T08:07:05.414Z,0.70
2018-11-20T08:08:07.920Z,0.80
2018-11-20T08:09:07.471Z,0.70
2018-11-20T08:10:05.451Z,0.70
2018-11-20T08:11:08.128Z,0.70
2018-11-20T08:12:05.212Z,0.80
2018-11-20T08:13:05.331Z,0.80
2018-11-20T08:14:05.565Z,0.80
2018-11-20T08:15:05.583Z,0.80
2018-11-20T08:16:05.869Z,0.80
2018-11-20T08:17:05.213Z,0.80
2018-11-20T08:18:05.271Z,0.80
2018-11-20T08:19:07.856Z,0.80
2018-11-20T08:20:04.760Z,0.80
2018-11-20T08:21:07.470Z,0.80
2018-11-20T08:22:05.398Z,0.80
2018-11-20T08:23:05.391Z,0.80
2018-11-20T08:24:05.483Z,0.80
2018-11-20T08:25:05.810Z,0.80
2018-11-20T08:26:05.058Z,0.80
2018-11-20T08:27:05.445Z,0.80
2018-11-20T08:28:05.472Z,0.80
2018-11-20T08:29:04.711Z,0.90
2018-11-20T08:30:04.873Z,0.90
2018-11-20T08:31:05.021Z,0.90
2018-11-20T08:32:07.997Z,0.90
2018-11-20T08:33:04.890Z,0.90
2018-11-20T08:34:05.045Z,0.90
2018-11-20T08:35:08.277Z,0.90
2018-11-20T08:36:05.531Z,0.90
2018-11-20T08:37:04.704Z,0.90
2018-11-20T08:38:04.935Z,0.90
2018-11-20T08:39:04.896Z,0.90
2018-11-20T08:40:07.446Z,0.90
2018-11-20T08:41:07.883Z,0.90
2018-11-20T08:42:07.376Z,0.90
2018-11-20T08:43:05.586Z,1.00
2018-11-20T08:44:04.650Z,1.00
2018-11-20T08:45:04.642Z,0.90
2018-11-20T08:46:04.723Z,1.00
2018-11-20T08:47:04.796Z,1.00
2018-11-20T08:48:07.409Z,1.00
2018-11-20T08:49:08.420Z,1.00
2018-11-20T08:50:05.376Z,1.00
2018-11-20T08:51:05.436Z,1.00
2018-11-20T08:52:05.579Z,1.00
2018-11-20T08:53:04.659Z,1.00
2018-11-20T08:54:04.838Z,1.00
2018-11-20T08:55:04.973Z,1.00
2018-11-20T08:56:05.019Z,1.00
2018-11-20T08:57:05.027Z,1.00
2018-11-20T08:58:05.172Z,1.00
2018-11-20T08:59:05.317Z,1.00
2018-11-20T09:00:05.424Z,1.00
2018-11-20T09:01:05.421Z,1.10
2018-11-20T09:02:05.537Z,1.00
2018-11-20T09:03:04.658Z,1.10
2018-11-20T09:04:04.813Z,1.00
2018-11-20T09:05:07.432Z,1.10
2018-11-20T09:06:05.415Z,1.10
2018-11-20T09:07:05.580Z,1.10
2018-11-20T09:08:07.200Z,1.10
2018-11-20T09:09:05.120Z,1.10
2018-11-20T09:10:07.805Z,1.10
2018-11-20T09:11:05.060Z,1.10
2018-11-20T09:12:05.109Z,1.10
2018-11-20T09:13:07.799Z,1.10
2018-11-20T09:14:07.258Z,1.10
2018-11-20T09:15:05.331Z,1.10
2018-11-20T09:16:05.451Z,1.10
2018-11-20T09:17:05.689Z,1.10
2018-11-20T09:18:04.836Z,1.20
2018-11-20T09:19:05.174Z,1.20
2018-11-20T09:20:05.726Z,1.20
2018-11-20T09:21:04.885Z,1.10
2018-11-20T09:22:05.104Z,1.20
2018-11-20T09:23:05.063Z,1.20
2018-11-20T09:24:05.203Z,1.20
2018-11-20T09:25:07.892Z,1.20
2018-11-20T09:26:04.796Z,1.20
2018-11-20T09:27:04.908Z,1.20
2018-11-20T09:28:05.177Z,1.20
2018-11-20T09:29:05.508Z,1.20
2018-11-20T09:30:05.525Z,1.20
2018-11-20T09:31:05.580Z,1.20
2018-11-20T09:32:04.685Z,1.20
2018-11-20T09:33:07.219Z,1.30
2018-11-20T09:34:07.740Z,1.30
2018-11-20T09:35:04.851Z,1.20
2018-11-20T09:36:05.142Z,1.20
2018-11-20T09:37:05.274Z,1.30
2018-11-20T09:38:10.400Z,1.30
2018-11-20T09:39:07.870Z,1.30
2018-11-20T09:40:04.848Z,1.30
2018-11-20T09:41:10.107Z,1.30
2018-11-20T09:42:07.546Z,1.30
2018-11-20T09:43:05.460Z,1.30
2018-11-20T09:44:05.578Z,1.30
2018-11-20T09:45:05.657Z,1.30
2018-11-20T09:46:04.692Z,1.30
2018-11-20T09:47:04.842Z,1.30
2018-11-20T09:48:05.207Z,1.30
2018-11-20T09:49:07.355Z,1.30
2018-11-20T09:50:05.282Z,1.30
2018-11-20T09:51:07.862Z,1.30
2018-11-20T09:52:04.717Z,1.30
2018-11-20T09:53:07.263Z,1.30
2018-11-20T09:54:07.736Z,1.30
2018-11-20T09:55:04.711Z,1.30
2018-11-20T09:56:04.766Z,1.30
2018-11-20T09:57:04.942Z,1.30
2018-11-20T09:58:10.143Z,1.30
2018-11-20T09:59:07.785Z,1.30
2018-11-20T10:00:04.985Z,1.30
2018-11-20T10:01:05.178Z,1.30
2018-11-20T10:02:07.760Z,1.30
2018-11-20T10:03:04.622Z,1.30
2018-11-20T10:04:04.788Z,1.30
2018-11-20T10:05:04.956Z,1.30
2018-11-20T10:06:05.162Z,1.30
2018-11-20T10:07:05.480Z,1.30
2018-11-20T10:08:07.223Z,1.30
2018-11-20T10:09:07.810Z,1.30
2018-11-20T10:10:07.319Z,1.30
2018-11-20T10:11:05.342Z,1.30
2018-11-20T10:12:05.399Z,1.30
2018-11-20T10:13:10.516Z,1.30
2018-11-20T10:14:05.652Z,1.30
2018-11-20T10:15:05.162Z,1.30
2018-11-20T10:16:05.394Z,1.30
2018-11-20T10:17:05.475Z,1.30
2018-11-20T10:18:05.544Z,1.30
2018-11-20T10:19:05.590Z,1.30
2018-11-20T10:20:05.619Z,1.30
2018-11-20T10:21:04.668Z,1.30
2018-11-20T10:22:04.917Z,1.30
2018-11-20T10:23:05.219Z,1.30
2018-11-20T10:24:05.296Z,1.30
2018-11-20T10:25:05.508Z,1.30
2018-11-20T10:26:05.047Z,1.30
2018-11-20T10:27:05.378Z,1.30
2018-11-20T10:28:05.601Z,1.30
2018-11-20T10:29:07.667Z,1.30
2018-11-20T10:30:04.668Z,1.30
2018-11-20T10:31:04.698Z,1.30
2018-11-20T10:32:05.028Z,1.40
2018-11-20T10:33:07.674Z,1.30
2018-11-20T10:34:08.166Z,1.30
2018-11-20T10:35:05.203Z,1.30
2018-11-20T10:36:07.748Z,1.30
2018-11-20T10:37:04.635Z,1.30
2018-11-20T10:38:07.224Z,1.40
2018-11-20T10:39:05.052Z,1.30
2018-11-20T10:40:07.616Z,1.30
2018-11-20T10:41:05.615Z,1.30
2018-11-20T10:42:04.699Z,1.40
2018-11-20T10:43:07.372Z,1.30
2018-11-20T10:44:07.715Z,1.40
2018-11-20T10:45:04.628Z,1.30
2018-11-20T10:46:07.191Z,1.30
2018-11-20T10:47:07.892Z,1.40
2018-11-20T10:48:09.846Z,1.30
2018-11-20T10:49:04.892Z,1.40
2018-11-20T10:50:04.978Z,1.30
2018-11-20T10:51:07.683Z,1.30
2018-11-20T10:52:04.716Z,1.30
2018-11-20T10:53:04.725Z,1.30
2018-11-20T10:54:04.792Z,1.40
2018-11-20T10:55:04.996Z,1.40
2018-11-20T10:56:05.226Z,1.30
2018-11-20T10:57:05.482Z,1.40
2018-11-20T10:58:08.158Z,1.30
2018-11-20T10:59:05.265Z,1.40
2018-11-20T11:00:05.384Z,1.40
2018-11-20T11:01:05.423Z,1.40
2018-11-20T11:02:07.979Z,1.40
2018-11-20T11:03:04.888Z,1.40
2018-11-20T11:04:04.935Z,1.40
2018-11-20T11:05:07.680Z,1.40
2018-11-20T11:06:07.420Z,1.40
2018-11-20T11:07:05.877Z,1.40
2018-11-20T11:08:04.869Z,1.40
2018-11-20T11:09:05.107Z,1.40
2018-11-20T11:10:08.049Z,1.40
2018-11-20T11:11:05.141Z,1.40
2018-11-20T11:12:08.040Z,1.40
2018-11-20T11:13:07.793Z,1.40
2018-11-20T11:14:04.839Z,1.40
2018-11-20T11:15:04.836Z,1.40
2018-11-20T11:16:04.867Z,1.40
2018-11-20T11:17:04.935Z,1.40
2018-11-20T11:18:05.060Z,1.40
2018-11-20T11:19:05.086Z,1.40
2018-11-20T11:20:05.108Z,1.40
2018-11-20T11:21:05.267Z,1.40
2018-11-20T11:22:05.534Z,1.30
2018-11-20T11:23:05.594Z,1.30
2018-11-20T11:24:05.646Z,1.30
2018-11-20T11:25:04.657Z,1.30
2018-11-20T11:26:04.850Z,1.30
2018-11-20T11:27:04.963Z,1.30
2018-11-20T11:28:05.053Z,1.30
2018-11-20T11:29:05.073Z,1.30
2018-11-20T11:30:05.213Z,1.20
2018-11-20T11:31:05.349Z,1.20
2018-11-20T11:32:05.571Z,1.20
2018-11-20T11:33:05.555Z,1.20
2018-11-20T11:34:05.580Z,1.20
2018-11-20T11:35:05.654Z,1.20
2018-11-20T11:36:04.801Z,1.10
2018-11-20T11:37:04.847Z,1.20
2018-11-20T11:38:04.924Z,1.10
2018-11-20T11:39:07.344Z,1.10
2018-11-20T11:40:05.210Z,1.10
2018-11-20T11:41:08.124Z,1.00
2018-11-20T11:42:05.094Z,1.00
2018-11-20T11:43:05.147Z,1.00
2018-11-20T11:44:05.366Z,1.00
2018-11-20T11:45:05.411Z,1.00
2018-11-20T11:46:07.979Z,1.00
2018-11-20T11:47:07.458Z,1.00
2018-11-20T11:48:05.495Z,1.00
2018-11-20T11:49:04.705Z,1.00
2018-11-20T11:50:04.742Z,0.90
2018-11-20T11:51:04.694Z,0.90
2018-11-20T11:52:07.292Z,0.90
2018-11-20T11:53:05.131Z,0.90
2018-11-20T11:54:07.764Z,0.90
2018-11-20T11:55:04.742Z,0.90
2018-11-20T11:56:04.843Z,0.90
2018-11-20T11:57:04.917Z,0.90
2018-11-20T11:58:04.987Z,0.90
2018-11-20T11:59:05.119Z,0.90
2018-11-20T12:00:05.224Z,0.90
2018-11-20T12:01:05.207Z,0.90
2018-11-20T12:05:10.425Z,0.80
2018-11-20T12:06:05.300Z,0.90
2018-11-20T12:07:05.328Z,0.80
2018-11-20T12:08:10.537Z,0.80
2018-11-20T12:09:05.504Z,0.80
2018-11-20T12:10:05.736Z,0.80
2018-11-20T12:11:10.370Z,0.80
2018-11-20T12:12:05.286Z,0.80
2018-11-20T12:13:05.344Z,0.80
2018-11-20T12:14:05.610Z,0.80
2018-11-20T12:15:04.730Z,0.80
2018-11-20T12:16:04.796Z,0.80
2018-11-20T12:17:07.390Z,0.80
2018-11-20T12:18:05.337Z,0.80
2018-11-20T12:19:05.368Z,0.90
2018-11-20T12:20:05.437Z,0.80
2018-11-20T12:21:05.438Z,0.80
2018-11-20T12:22:07.944Z,0.80
2018-11-20T12:23:04.914Z,0.80
2018-11-20T12:24:05.081Z,0.80
2018-11-20T12:25:07.774Z,0.80
2018-11-20T12:26:04.890Z,0.90
2018-11-20T12:27:05.040Z,0.80
2018-11-20T12:28:05.065Z,0.90
2018-11-20T12:29:05.127Z,0.90
2018-11-20T12:30:07.820Z,0.90
2018-11-20T12:31:04.746Z,0.90
2018-11-20T12:32:06.366Z,0.90
2018-11-20T12:33:05.388Z,1.00
2018-11-20T12:34:05.603Z,0.90
2018-11-20T12:35:04.810Z,0.90
2018-11-20T12:36:04.825Z,1.00
2018-11-20T12:37:06.444Z,1.00
2018-11-20T12:38:05.643Z,1.00
2018-11-20T12:39:04.829Z,1.00
2018-11-20T12:40:04.980Z,1.00
2018-11-20T12:41:05.022Z,1.10
2018-11-20T12:42:07.649Z,1.00
2018-11-20T12:43:05.597Z,1.00
2018-11-20T12:44:05.966Z,1.10
2018-11-20T12:45:05.169Z,1.10
2018-11-20T12:46:05.152Z,1.00
2018-11-20T12:47:05.210Z,1.00
2018-11-20T12:48:05.074Z,1.00
2018-11-20T12:49:05.284Z,1.10
2018-11-20T12:50:05.402Z,1.00
2018-11-20T12:51:07.691Z,1.00
2018-11-20T12:52:05.887Z,1.00
2018-11-20T12:53:07.600Z,1.00
2018-11-20T12:54:05.602Z,1.00
2018-11-20T12:55:07.236Z,1.00
2018-11-20T12:56:07.823Z,1.00
2018-11-20T12:57:04.877Z,1.00
2018-11-20T12:58:04.949Z,1.00
2018-11-20T12:59:04.997Z,1.00
2018-11-20T13:00:05.322Z,1.00
2018-11-20T13:01:10.457Z,1.00
2018-11-20T13:02:08.014Z,1.10
2018-11-20T13:03:04.928Z,1.00
2018-11-20T13:04:08.835Z,1.10
2018-11-20T13:05:09.327Z,1.10
2018-11-20T13:06:05.457Z,1.00
2018-11-20T13:07:05.576Z,1.10
2018-11-20T13:08:09.666Z,1.10
2018-11-20T13:09:08.161Z,1.10
2018-11-20T13:10:05.276Z,1.10
2018-11-20T13:11:05.373Z,1.10
2018-11-20T13:12:08.105Z,1.10
2018-11-20T13:13:07.620Z,1.10
2018-11-20T13:14:08.097Z,1.10
2018-11-20T13:15:04.964Z,1.10
2018-11-20T13:16:05.041Z,1.10
2018-11-20T13:17:06.893Z,1.10
2018-11-20T13:18:05.873Z,1.20